sensor_id;sensor_type;location;lat;lon;timestamp;temperature;humidity
35645;DHT22;21764;52.042;6.830;2023-02-28T00:03:06;0.60;97.30
35645;DHT22;21764;52.042;6.830;2023-02-28T00:08:07;0.70;97.20
35645;DHT22;21764;52.042;6.830;2023-02-28T00:13:08;0.70;97.10
35645;DHT22;21764;52.042;6.830;2023-02-28T00:18:09;0.70;97.10
35645;DHT22;21764;52.042;6.830;2023-02-28T00:23:09;0.80;97.00
35645;DHT22;21764;52.042;6.830;2023-02-28T00:28:10;0.70;97.00
35645;DHT22;21764;52.042;6.830;2023-02-28T00:33:11;0.80;97.20
35645;DHT22;21764;52.042;6.830;2023-02-28T00:38:13;0.70;97.00
35645;DHT22;21764;52.042;6.830;2023-02-28T00:43:14;0.80;96.90
35645;DHT22;21764;52.042;6.830;2023-02-28T00:48:14;0.80;97.10
35645;DHT22;21764;52.042;6.830;2023-02-28T00:53:16;0.80;97.00
35645;DHT22;21764;52.042;6.830;2023-02-28T00:58:17;0.90;96.80
35645;DHT22;21764;52.042;6.830;2023-02-28T01:03:19;0.90;96.80
35645;DHT22;21764;52.042;6.830;2023-02-28T01:08:20;0.90;97.20
35645;DHT22;21764;52.042;6.830;2023-02-28T01:13:21;1.00;97.00
35645;DHT22;21764;52.042;6.830;2023-02-28T01:18:23;1.10;97.00
35645;DHT22;21764;52.042;6.830;2023-02-28T01:23:24;1.10;96.90
35645;DHT22;21764;52.042;6.830;2023-02-28T01:28:25;1.10;96.90
35645;DHT22;21764;52.042;6.830;2023-02-28T01:33:26;1.10;96.80
35645;DHT22;21764;52.042;6.830;2023-02-28T01:38:27;1.10;96.90
35645;DHT22;21764;52.042;6.830;2023-02-28T01:49:14;1.10;96.80
35645;DHT22;21764;52.042;6.830;2023-02-28T01:54:24;1.10;96.70
35645;DHT22;21764;52.042;6.830;2023-02-28T01:59:43;1.10;96.80
35645;DHT22;21764;52.042;6.830;2023-02-28T02:04:56;1.10;97.00
35645;DHT22;21764;52.042;6.830;2023-02-28T02:10:14;1.10;96.90
35645;DHT22;21764;52.042;6.830;2023-02-28T02:15:41;1.10;97.30
35645;DHT22;21764;52.042;6.830;2023-02-28T02:36:53;1.10;96.70
35645;DHT22;21764;52.042;6.830;2023-02-28T02:42:01;1.20;97.10
35645;DHT22;21764;52.042;6.830;2023-02-28T02:47:10;1.20;97.00
35645;DHT22;21764;52.042;6.830;2023-02-28T02:52:15;1.20;97.00
35645;DHT22;21764;52.042;6.830;2023-02-28T02:57:40;1.20;97.70
35645;DHT22;21764;52.042;6.830;2023-02-28T03:02:45;1.20;97.70
35645;DHT22;21764;52.042;6.830;2023-02-28T03:07:46;1.10;97.90
35645;DHT22;21764;52.042;6.830;2023-02-28T03:12:56;1.10;98.30
35645;DHT22;21764;52.042;6.830;2023-02-28T03:18:10;1.00;98.40
35645;DHT22;21764;52.042;6.830;2023-02-28T03:23:19;1.10;98.10
35645;DHT22;21764;52.042;6.830;2023-02-28T03:28:41;1.00;98.10
35645;DHT22;21764;52.042;6.830;2023-02-28T03:33:49;1.00;98.20
35645;DHT22;21764;52.042;6.830;2023-02-28T03:38:59;1.00;98.40
35645;DHT22;21764;52.042;6.830;2023-02-28T03:44:29;1.10;97.90
35645;DHT22;21764;52.042;6.830;2023-02-28T03:49:36;1.10;97.80
35645;DHT22;21764;52.042;6.830;2023-02-28T03:54:51;1.20;97.60
35645;DHT22;21764;52.042;6.830;2023-02-28T03:59:56;1.10;97.30
35645;DHT22;21764;52.042;6.830;2023-02-28T04:05:00;1.20;97.20
35645;DHT22;21764;52.042;6.830;2023-02-28T04:10:01;1.20;97.20
35645;DHT22;21764;52.042;6.830;2023-02-28T04:15:02;1.20;96.70
35645;DHT22;21764;52.042;6.830;2023-02-28T04:20:04;1.10;97.00
35645;DHT22;21764;52.042;6.830;2023-02-28T04:25:10;1.00;97.30
35645;DHT22;21764;52.042;6.830;2023-02-28T04:30:11;1.00;97.50
35645;DHT22;21764;52.042;6.830;2023-02-28T04:35:12;1.00;97.50
35645;DHT22;21764;52.042;6.830;2023-02-28T04:40:12;1.00;97.50
35645;DHT22;21764;52.042;6.830;2023-02-28T04:45:13;0.90;97.80
35645;DHT22;21764;52.042;6.830;2023-02-28T04:50:29;0.90;97.80
35645;DHT22;21764;52.042;6.830;2023-02-28T04:55:30;0.70;98.00
35645;DHT22;21764;52.042;6.830;2023-02-28T05:00:31;0.60;98.30
35645;DHT22;21764;52.042;6.830;2023-02-28T05:05:32;0.60;98.30
35645;DHT22;21764;52.042;6.830;2023-02-28T05:10:32;0.50;97.90
35645;DHT22;21764;52.042;6.830;2023-02-28T05:15:33;0.40;98.10
35645;DHT22;21764;52.042;6.830;2023-02-28T05:20:34;0.20;98.60
35645;DHT22;21764;52.042;6.830;2023-02-28T05:25:35;-0.10;99.00
35645;DHT22;21764;52.042;6.830;2023-02-28T05:30:35;-0.10;99.20
35645;DHT22;21764;52.042;6.830;2023-02-28T05:35:39;0.00;99.40
35645;DHT22;21764;52.042;6.830;2023-02-28T05:40:40;-0.10;99.40
35645;DHT22;21764;52.042;6.830;2023-02-28T05:45:42;-0.20;99.70
35645;DHT22;21764;52.042;6.830;2023-02-28T05:50:43;-0.30;99.80
35645;DHT22;21764;52.042;6.830;2023-02-28T05:55:46;-0.40;99.90
35645;DHT22;21764;52.042;6.830;2023-02-28T06:00:47;-0.60;99.90
35645;DHT22;21764;52.042;6.830;2023-02-28T06:05:48;-0.60;99.90
35645;DHT22;21764;52.042;6.830;2023-02-28T06:10:49;-0.60;99.90
35645;DHT22;21764;52.042;6.830;2023-02-28T06:15:49;-0.50;99.90
35645;DHT22;21764;52.042;6.830;2023-02-28T06:20:54;-0.50;99.90
35645;DHT22;21764;52.042;6.830;2023-02-28T06:25:55;-0.60;99.90
35645;DHT22;21764;52.042;6.830;2023-02-28T06:30:58;-0.60;99.90
35645;DHT22;21764;52.042;6.830;2023-02-28T06:35:59;0.00;99.90
35645;DHT22;21764;52.042;6.830;2023-02-28T06:41:00;-0.10;99.90
35645;DHT22;21764;52.042;6.830;2023-02-28T06:46:03;-0.20;99.90
35645;DHT22;21764;52.042;6.830;2023-02-28T06:51:13;1.90;98.20
35645;DHT22;21764;52.042;6.830;2023-02-28T06:56:16;6.10;88.50
35645;DHT22;21764;52.042;6.830;2023-02-28T07:01:17;7.50;80.90
35645;DHT22;21764;52.042;6.830;2023-02-28T07:06:21;7.10;81.70
35645;DHT22;21764;52.042;6.830;2023-02-28T07:11:26;9.20;73.80
35645;DHT22;21764;52.042;6.830;2023-02-28T07:16:27;6.10;78.40
35645;DHT22;21764;52.042;6.830;2023-02-28T07:21:28;3.60;89.60
35645;DHT22;21764;52.042;6.830;2023-02-28T07:26:29;3.80;90.20
35645;DHT22;21764;52.042;6.830;2023-02-28T07:31:29;8.40;77.90
35645;DHT22;21764;52.042;6.830;2023-02-28T07:36:30;12.80;61.80
35645;DHT22;21764;52.042;6.830;2023-02-28T07:41:31;14.00;57.10
35645;DHT22;21764;52.042;6.830;2023-02-28T07:46:34;15.10;52.20
35645;DHT22;21764;52.042;6.830;2023-02-28T07:51:35;10.00;62.00
35645;DHT22;21764;52.042;6.830;2023-02-28T07:56:36;14.20;55.10
35645;DHT22;21764;52.042;6.830;2023-02-28T08:01:37;12.60;56.40
35645;DHT22;21764;52.042;6.830;2023-02-28T08:06:38;13.40;56.00
35645;DHT22;21764;52.042;6.830;2023-02-28T08:11:39;16.90;48.50
35645;DHT22;21764;52.042;6.830;2023-02-28T08:16:39;20.00;43.80
35645;DHT22;21764;52.042;6.830;2023-02-28T08:21:40;19.20;43.20
35645;DHT22;21764;52.042;6.830;2023-02-28T08:26:41;19.00;41.10
35645;DHT22;21764;52.042;6.830;2023-02-28T08:31:42;19.50;40.20
35645;DHT22;21764;52.042;6.830;2023-02-28T08:36:43;19.00;38.70
35645;DHT22;21764;52.042;6.830;2023-02-28T08:41:45;18.60;39.10
35645;DHT22;21764;52.042;6.830;2023-02-28T08:46:45;19.10;38.20
35645;DHT22;21764;52.042;6.830;2023-02-28T08:51:46;20.70;36.40
35645;DHT22;21764;52.042;6.830;2023-02-28T08:56:47;22.10;34.60
35645;DHT22;21764;52.042;6.830;2023-02-28T09:01:47;21.10;34.10
35645;DHT22;21764;52.042;6.830;2023-02-28T09:06:48;19.70;35.40
35645;DHT22;21764;52.042;6.830;2023-02-28T09:11:50;21.30;32.70
35645;DHT22;21764;52.042;6.830;2023-02-28T09:16:51;21.20;33.10
35645;DHT22;21764;52.042;6.830;2023-02-28T09:21:51;20.00;34.50
35645;DHT22;21764;52.042;6.830;2023-02-28T09:26:53;21.20;34.30
35645;DHT22;21764;52.042;6.830;2023-02-28T09:31:53;20.70;32.30
35645;DHT22;21764;52.042;6.830;2023-02-28T09:36:54;19.90;32.50
35645;DHT22;21764;52.042;6.830;2023-02-28T09:41:57;21.00;31.00
35645;DHT22;21764;52.042;6.830;2023-02-28T09:47:01;20.90;30.80
35645;DHT22;21764;52.042;6.830;2023-02-28T09:52:10;19.50;33.40
35645;DHT22;21764;52.042;6.830;2023-02-28T10:08:17;18.40;33.10
35645;DHT22;21764;52.042;6.830;2023-02-28T10:13:26;16.80;35.20
35645;DHT22;21764;52.042;6.830;2023-02-28T10:18:34;17.10;34.70
35645;DHT22;21764;52.042;6.830;2023-02-28T10:23:38;16.70;36.10
35645;DHT22;21764;52.042;6.830;2023-02-28T10:28:39;15.20;36.90
35645;DHT22;21764;52.042;6.830;2023-02-28T10:33:40;14.00;39.20
35645;DHT22;21764;52.042;6.830;2023-02-28T10:38:41;13.70;40.20
35645;DHT22;21764;52.042;6.830;2023-02-28T10:43:43;13.80;40.10
35645;DHT22;21764;52.042;6.830;2023-02-28T10:48:50;13.20;41.40
35645;DHT22;21764;52.042;6.830;2023-02-28T10:53:58;12.40;40.90
35645;DHT22;21764;52.042;6.830;2023-02-28T10:59:23;12.10;41.70
35645;DHT22;21764;52.042;6.830;2023-02-28T11:09:33;10.50;43.10
35645;DHT22;21764;52.042;6.830;2023-02-28T11:14:47;10.20;44.10
35645;DHT22;21764;52.042;6.830;2023-02-28T11:19:55;9.50;45.30
35645;DHT22;21764;52.042;6.830;2023-02-28T11:25:01;9.80;44.60
35645;DHT22;21764;52.042;6.830;2023-02-28T11:30:03;8.20;46.50
35645;DHT22;21764;52.042;6.830;2023-02-28T11:40:18;6.60;49.80
35645;DHT22;21764;52.042;6.830;2023-02-28T12:07:31;5.90;53.60
35645;DHT22;21764;52.042;6.830;2023-02-28T12:29:16;5.80;53.60
35645;DHT22;21764;52.042;6.830;2023-02-28T12:34:28;5.80;53.80
35645;DHT22;21764;52.042;6.830;2023-02-28T12:39:44;6.00;54.80
35645;DHT22;21764;52.042;6.830;2023-02-28T12:50:29;5.80;53.90
35645;DHT22;21764;52.042;6.830;2023-02-28T12:55:42;5.70;53.90
35645;DHT22;21764;52.042;6.830;2023-02-28T13:11:42;5.80;55.00
35645;DHT22;21764;52.042;6.830;2023-02-28T13:16:58;5.70;54.50
35645;DHT22;21764;52.042;6.830;2023-02-28T13:21:59;5.80;55.10
35645;DHT22;21764;52.042;6.830;2023-02-28T13:47:23;5.70;54.70
35645;DHT22;21764;52.042;6.830;2023-02-28T13:52:28;5.80;54.80
35645;DHT22;21764;52.042;6.830;2023-02-28T14:08:12;5.80;56.30
35645;DHT22;21764;52.042;6.830;2023-02-28T14:18:56;6.10;55.60
35645;DHT22;21764;52.042;6.830;2023-02-28T14:40:30;6.10;56.30
35645;DHT22;21764;52.042;6.830;2023-02-28T14:45:32;6.00;54.90
35645;DHT22;21764;52.042;6.830;2023-02-28T14:50:36;6.00;57.30
35645;DHT22;21764;52.042;6.830;2023-02-28T14:55:37;6.10;56.00
35645;DHT22;21764;52.042;6.830;2023-02-28T15:00:48;6.10;56.50
35645;DHT22;21764;52.042;6.830;2023-02-28T15:05:55;6.10;55.80
35645;DHT22;21764;52.042;6.830;2023-02-28T15:11:11;6.00;55.40
35645;DHT22;21764;52.042;6.830;2023-02-28T15:16:41;6.00;56.10
35645;DHT22;21764;52.042;6.830;2023-02-28T15:21:46;5.90;57.40
35645;DHT22;21764;52.042;6.830;2023-02-28T15:26:53;5.90;56.20
35645;DHT22;21764;52.042;6.830;2023-02-28T15:32:04;5.90;56.40
35645;DHT22;21764;52.042;6.830;2023-02-28T15:42:35;5.90;56.80
35645;DHT22;21764;52.042;6.830;2023-02-28T15:47:35;5.80;56.80
35645;DHT22;21764;52.042;6.830;2023-02-28T15:52:43;5.80;57.60
35645;DHT22;21764;52.042;6.830;2023-02-28T15:57:47;5.80;57.70
35645;DHT22;21764;52.042;6.830;2023-02-28T16:02:48;5.70;58.50
35645;DHT22;21764;52.042;6.830;2023-02-28T16:07:49;5.60;57.90
35645;DHT22;21764;52.042;6.830;2023-02-28T16:12:50;5.50;58.40
35645;DHT22;21764;52.042;6.830;2023-02-28T16:17:51;5.40;59.30
35645;DHT22;21764;52.042;6.830;2023-02-28T16:22:53;5.40;59.70
35645;DHT22;21764;52.042;6.830;2023-02-28T16:27:54;5.20;60.00
35645;DHT22;21764;52.042;6.830;2023-02-28T16:32:55;5.10;60.60
35645;DHT22;21764;52.042;6.830;2023-02-28T16:37:56;5.00;62.10
35645;DHT22;21764;52.042;6.830;2023-02-28T16:42:58;4.80;62.00
35645;DHT22;21764;52.042;6.830;2023-02-28T16:48:00;4.70;63.20
35645;DHT22;21764;52.042;6.830;2023-02-28T16:53:00;4.60;63.40
35645;DHT22;21764;52.042;6.830;2023-02-28T16:58:02;4.40;64.20
35645;DHT22;21764;52.042;6.830;2023-02-28T17:03:03;4.30;65.10
35645;DHT22;21764;52.042;6.830;2023-02-28T17:08:05;4.10;65.50
35645;DHT22;21764;52.042;6.830;2023-02-28T17:13:05;3.90;67.20
35645;DHT22;21764;52.042;6.830;2023-02-28T17:18:12;3.70;68.00
35645;DHT22;21764;52.042;6.830;2023-02-28T17:23:14;3.50;68.90
35645;DHT22;21764;52.042;6.830;2023-02-28T17:28:15;3.30;70.10
35645;DHT22;21764;52.042;6.830;2023-02-28T17:33:16;3.10;71.30
35645;DHT22;21764;52.042;6.830;2023-02-28T17:38:18;3.00;72.60
35645;DHT22;21764;52.042;6.830;2023-02-28T17:43:19;2.90;72.20
35645;DHT22;21764;52.042;6.830;2023-02-28T17:48:19;2.90;72.40
35645;DHT22;21764;52.042;6.830;2023-02-28T17:53:20;2.60;74.80
35645;DHT22;21764;52.042;6.830;2023-02-28T17:58:24;2.60;76.10
35645;DHT22;21764;52.042;6.830;2023-02-28T18:03:25;2.50;75.90
35645;DHT22;21764;52.042;6.830;2023-02-28T18:08:28;2.40;78.00
35645;DHT22;21764;52.042;6.830;2023-02-28T18:13:29;2.30;78.20
35645;DHT22;21764;52.042;6.830;2023-02-28T18:18:37;2.20;79.40
35645;DHT22;21764;52.042;6.830;2023-02-28T18:23:38;2.20;79.60
35645;DHT22;21764;52.042;6.830;2023-02-28T18:28:47;2.20;78.70
35645;DHT22;21764;52.042;6.830;2023-02-28T18:33:49;2.30;77.30
35645;DHT22;21764;52.042;6.830;2023-02-28T18:38:50;2.40;77.40
35645;DHT22;21764;52.042;6.830;2023-02-28T18:43:51;2.40;75.10
35645;DHT22;21764;52.042;6.830;2023-02-28T18:48:53;2.60;74.20
35645;DHT22;21764;52.042;6.830;2023-02-28T18:53:56;2.40;75.00
35645;DHT22;21764;52.042;6.830;2023-02-28T18:58:56;2.40;75.40
35645;DHT22;21764;52.042;6.830;2023-02-28T19:03:58;2.20;76.50
35645;DHT22;21764;52.042;6.830;2023-02-28T19:09:03;2.20;76.80
35645;DHT22;21764;52.042;6.830;2023-02-28T19:14:04;2.00;77.80
35645;DHT22;21764;52.042;6.830;2023-02-28T19:19:05;1.90;77.50
35645;DHT22;21764;52.042;6.830;2023-02-28T19:24:05;1.90;78.00
35645;DHT22;21764;52.042;6.830;2023-02-28T19:29:06;1.80;79.00
35645;DHT22;21764;52.042;6.830;2023-02-28T19:34:07;1.70;79.80
35645;DHT22;21764;52.042;6.830;2023-02-28T19:39:08;1.40;81.50
35645;DHT22;21764;52.042;6.830;2023-02-28T19:44:08;1.10;82.80
35645;DHT22;21764;52.042;6.830;2023-02-28T19:49:09;1.10;83.40
35645;DHT22;21764;52.042;6.830;2023-02-28T19:54:10;1.20;82.70
35645;DHT22;21764;52.042;6.830;2023-02-28T19:59:10;1.30;82.30
35645;DHT22;21764;52.042;6.830;2023-02-28T20:04:11;1.20;82.80
35645;DHT22;21764;52.042;6.830;2023-02-28T20:09:12;1.20;83.50
35645;DHT22;21764;52.042;6.830;2023-02-28T20:14:13;1.00;84.90
35645;DHT22;21764;52.042;6.830;2023-02-28T20:19:14;0.80;85.00
35645;DHT22;21764;52.042;6.830;2023-02-28T20:24:14;0.80;85.30
35645;DHT22;21764;52.042;6.830;2023-02-28T20:29:15;0.80;86.40
35645;DHT22;21764;52.042;6.830;2023-02-28T20:34:16;0.70;86.60
35645;DHT22;21764;52.042;6.830;2023-02-28T20:39:17;0.60;89.70
35645;DHT22;21764;52.042;6.830;2023-02-28T20:44:18;0.40;90.30
35645;DHT22;21764;52.042;6.830;2023-02-28T20:49:19;0.30;90.50
35645;DHT22;21764;52.042;6.830;2023-02-28T20:54:19;0.10;90.90
35645;DHT22;21764;52.042;6.830;2023-02-28T20:59:21;0.00;90.50
35645;DHT22;21764;52.042;6.830;2023-02-28T21:04:22;0.00;91.00
35645;DHT22;21764;52.042;6.830;2023-02-28T21:09:23;0.00;91.20
35645;DHT22;21764;52.042;6.830;2023-02-28T21:14:23;-0.10;91.20
35645;DHT22;21764;52.042;6.830;2023-02-28T21:19:25;-0.20;90.90
35645;DHT22;21764;52.042;6.830;2023-02-28T21:24:26;-0.30;91.70
35645;DHT22;21764;52.042;6.830;2023-02-28T21:29:26;-0.40;92.40
35645;DHT22;21764;52.042;6.830;2023-02-28T21:34:27;-0.40;92.20
35645;DHT22;21764;52.042;6.830;2023-02-28T21:39:28;-0.40;93.20
35645;DHT22;21764;52.042;6.830;2023-02-28T21:44:30;-0.40;93.60
35645;DHT22;21764;52.042;6.830;2023-02-28T21:49:31;-0.50;92.50
35645;DHT22;21764;52.042;6.830;2023-02-28T21:54:32;-0.60;92.50
35645;DHT22;21764;52.042;6.830;2023-02-28T21:59:33;-0.60;92.60
35645;DHT22;21764;52.042;6.830;2023-02-28T22:04:34;-0.50;92.30
35645;DHT22;21764;52.042;6.830;2023-02-28T22:09:35;-0.70;92.40
35645;DHT22;21764;52.042;6.830;2023-02-28T22:14:38;-0.60;92.50
35645;DHT22;21764;52.042;6.830;2023-02-28T22:19:39;-0.70;92.50
35645;DHT22;21764;52.042;6.830;2023-02-28T22:24:40;-0.60;92.30
35645;DHT22;21764;52.042;6.830;2023-02-28T22:29:41;-0.70;92.50
35645;DHT22;21764;52.042;6.830;2023-02-28T22:34:41;-0.80;92.80
35645;DHT22;21764;52.042;6.830;2023-02-28T22:39:42;-0.90;93.60
35645;DHT22;21764;52.042;6.830;2023-02-28T22:44:43;-1.00;93.80
35645;DHT22;21764;52.042;6.830;2023-02-28T22:49:46;-1.10;94.90
35645;DHT22;21764;52.042;6.830;2023-02-28T22:54:50;-1.20;95.00
35645;DHT22;21764;52.042;6.830;2023-02-28T22:59:50;-1.30;94.90
35645;DHT22;21764;52.042;6.830;2023-02-28T23:04:53;-1.30;94.50
35645;DHT22;21764;52.042;6.830;2023-02-28T23:09:54;-1.30;95.20
35645;DHT22;21764;52.042;6.830;2023-02-28T23:14:55;-1.40;94.60
35645;DHT22;21764;52.042;6.830;2023-02-28T23:19:56;-1.40;94.60
35645;DHT22;21764;52.042;6.830;2023-02-28T23:24:57;-1.50;94.90
35645;DHT22;21764;52.042;6.830;2023-02-28T23:29:57;-1.50;94.80
35645;DHT22;21764;52.042;6.830;2023-02-28T23:34:59;-1.60;94.80
35645;DHT22;21764;52.042;6.830;2023-02-28T23:40:00;-1.50;94.90
35645;DHT22;21764;52.042;6.830;2023-02-28T23:45:00;-1.60;95.80
35645;DHT22;21764;52.042;6.830;2023-02-28T23:50:01;-1.60;95.90
35645;DHT22;21764;52.042;6.830;2023-02-28T23:55:03;-1.80;95.70
